CBH7 weather

Benalto/Hillmans Farm Airport
Alberta, Canada

Public forecast

Using degrees Celsius for public forecast. Weather courtesy of forecast.io.

Closest aviation weather report (METAR) to Benalto/Hillmans Farm Airport

Closest report is Red Deer Regional Airport, 13.6 nm (25.2 km) ESE. Retrieved 2020/08/03 11:00 UTC (51 minutes ago):

CYQF 031100Z AUTO 14006KT 9SM OVC120 16/12 A2983 RMK SLP093 DENSITY ALT 3800FT

Closest aviation forecast (TAF) to Benalto/Hillmans Farm Airport

Closest forecast is Red Deer Regional Airport, 13.6 nm (25.2 km) ESE. Retrieved 2020/08/03 06:42 UTC (5 hours ago):

TAF CYQF 030540Z 0306/0318 16006KT P6SM FEW120 FM031700 32012KT P6SM SCT120 RMK FCST BASED ON AUTO OBS NXT FCST BY 031200Z